Time;durP1;ratioP1;P1;durP2;ratioP2;P2;SDS_P1;SDS_P2;PMS_P1;PMS_P2;Temp;Humidity;BMP_temperature;BMP_pressure;BME280_temperature;BME280_humidity;BME280_pressure;Samples;Min_cycle;Max_cycle;Signal;HPM_P1;HPM_P2
2022/07/17 00:02:27;;;;;;;86.87;12.77;;;10.60;99.90;;;;;;4403771;28;659462;-64
2022/07/17 00:05:15;;;;;;;67.00;12.57;;;10.70;99.90;;;;;;4409777;28;658656;-64
2022/07/17 00:08:06;;;;;;;44.40;12.50;;;10.70;99.90;;;;;;4415136;28;658714;-64
2022/07/17 00:10:53;;;;;;;29.77;12.83;;;10.70;99.90;;;;;;4395282;28;661718;-63
2022/07/17 00:13:40;;;;;;;38.93;13.63;;;10.70;99.90;;;;;;4409278;28;659061;-65
2022/07/17 00:16:27;;;;;;;37.77;14.43;;;10.60;99.90;;;;;;4402636;28;658462;-65
2022/07/17 00:19:14;;;;;;;28.37;13.93;;;10.60;99.90;;;;;;4406372;28;659513;-64
2022/07/17 00:22:01;;;;;;;26.80;14.60;;;10.50;99.90;;;;;;4387977;28;658718;-64
2022/07/17 00:24:50;;;;;;;26.57;16.77;;;10.40;99.90;;;;;;4413779;28;659049;-65
2022/07/17 00:27:37;;;;;;;28.70;16.83;;;10.40;99.90;;;;;;4391824;28;660599;-64
2022/07/17 00:30:24;;;;;;;25.33;15.57;;;10.40;99.90;;;;;;4413097;28;661729;-64
2022/07/17 00:33:11;;;;;;;22.60;14.07;;;10.40;99.90;;;;;;4393452;28;658722;-64
2022/07/17 00:35:58;;;;;;;23.27;14.23;;;10.30;99.90;;;;;;4414627;28;659984;-64
2022/07/17 00:38:45;;;;;;;27.23;14.63;;;10.20;99.90;;;;;;4394346;28;658533;-64
2022/07/17 00:41:34;;;;;;;25.10;15.43;;;10.10;99.90;;;;;;4424154;28;658636;-64
2022/07/17 00:44:21;;;;;;;24.87;14.07;;;10.00;99.90;;;;;;4391658;28;658710;-64
2022/07/17 00:47:12;;;;;;;21.43;13.73;;;10.00;99.90;;;;;;4411114;28;658198;-64
2022/07/17 00:49:59;;;;;;;23.40;13.87;;;10.00;99.90;;;;;;4388158;28;658722;-64
2022/07/17 00:52:46;;;;;;;23.60;13.03;;;9.90;99.90;;;;;;4388704;28;658728;-65
2022/07/17 00:55:34;;;;;;;21.57;13.73;;;9.80;99.90;;;;;;4418641;28;657583;-64
2022/07/17 00:58:23;;;;;;;21.77;13.57;;;9.80;99.90;;;;;;4394027;28;657907;-64
2022/07/17 01:01:10;;;;;;;23.57;13.17;;;9.70;99.90;;;;;;4386085;28;658139;-65
2022/07/17 01:03:57;;;;;;;18.87;12.37;;;9.60;99.90;;;;;;4401292;28;658419;-65
2022/07/17 01:06:44;;;;;;;21.90;12.47;;;9.50;99.90;;;;;;4397829;28;658009;-64
2022/07/17 01:09:31;;;;;;;20.77;12.53;;;9.40;99.90;;;;;;4398248;28;657883;-64
2022/07/17 01:12:18;;;;;;;17.63;11.63;;;9.30;99.90;;;;;;4397675;28;657630;-65
2022/07/17 01:15:08;;;;;;;19.90;12.67;;;9.30;99.90;;;;;;4396073;28;657297;-65
2022/07/17 01:17:55;;;;;;;16.77;11.60;;;9.30;99.90;;;;;;4396223;28;657958;-64
2022/07/17 01:20:44;;;;;;;20.00;11.63;;;9.20;99.90;;;;;;4414345;28;659276;-64
2022/07/17 01:23:32;;;;;;;20.00;11.97;;;9.20;99.90;;;;;;4395080;28;657197;-63
2022/07/17 01:26:19;;;;;;;20.77;11.87;;;9.10;99.90;;;;;;4413816;28;658429;-64
2022/07/17 01:29:06;;;;;;;15.70;11.37;;;9.10;99.90;;;;;;4395018;28;657730;-65
2022/07/17 01:31:53;;;;;;;18.60;11.90;;;9.00;99.90;;;;;;4408487;28;658116;-64
2022/07/17 01:34:40;;;;;;;20.57;11.60;;;8.90;99.90;;;;;;4390188;28;657499;-64
2022/07/17 01:37:28;;;;;;;18.90;11.30;;;8.80;99.90;;;;;;4406890;28;659220;-64
2022/07/17 01:40:17;;;;;;;21.43;11.73;;;8.80;99.90;;;;;;4408198;28;658010;-65
2022/07/17 01:43:04;;;;;;;23.30;11.50;;;8.80;99.90;;;;;;4409995;28;657403;-64
2022/07/17 01:45:51;;;;;;;24.93;11.77;;;8.70;99.90;;;;;;4386646;28;657377;-64
2022/07/17 01:48:38;;;;;;;20.53;11.63;;;8.50;99.90;;;;;;4416347;28;658389;-64
2022/07/17 01:51:25;;;;;;;20.90;11.68;;;8.40;99.90;;;;;;4378319;28;657659;-64
2022/07/17 01:54:12;;;;;;;18.50;12.00;;;8.30;99.90;;;;;;4416609;28;657421;-64
2022/07/17 01:57:01;;;;;;;21.77;12.70;;;8.30;99.90;;;;;;4413949;28;658216;-64
2022/07/17 01:59:48;;;;;;;15.70;11.63;;;8.30;99.90;;;;;;4387791;28;658287;-63
2022/07/17 02:02:35;;;;;;;15.60;11.25;;;8.10;99.90;;;;;;4401435;28;657586;-66
2022/07/17 02:05:22;;;;;;;17.03;11.37;;;8.10;99.90;;;;;;4414434;28;657015;-63
2022/07/17 02:08:09;;;;;;;14.93;11.00;;;8.10;99.90;;;;;;4411246;28;657696;-64
2022/07/17 02:10:57;;;;;;;17.23;10.63;;;8.20;99.90;;;;;;4396479;28;657938;-64
2022/07/17 02:13:45;;;;;;;19.27;10.73;;;8.10;99.90;;;;;;4414124;28;658134;-64
2022/07/17 02:16:32;;;;;;;17.60;10.10;;;8.00;99.90;;;;;;4399161;28;657849;-64
2022/07/17 02:19:19;;;;;;;13.87;9.73;;;8.00;99.90;;;;;;4416232;28;657924;-64
2022/07/17 02:22:06;;;;;;;16.40;10.90;;;8.00;99.90;;;;;;4392594;28;657224;-64
2022/07/17 02:24:53;;;;;;;16.33;9.83;;;8.00;99.90;;;;;;4417349;28;658832;-64
2022/07/17 02:27:41;;;;;;;18.43;10.53;;;8.00;99.90;;;;;;4394029;28;657281;-64
2022/07/17 02:30:29;;;;;;;19.70;11.60;;;7.90;99.90;;;;;;4414910;28;658182;-64
2022/07/17 02:33:16;;;;;;;19.00;10.93;;;8.00;99.90;;;;;;4386881;28;658176;-64
2022/07/17 02:36:04;;;;;;;18.03;10.93;;;8.10;99.90;;;;;;4409201;28;658125;-64
2022/07/17 02:38:51;;;;;;;31.23;11.53;;;8.20;99.90;;;;;;4387951;28;657551;-65
2022/07/17 02:41:38;;;;;;;18.30;10.40;;;8.30;99.90;;;;;;4392557;28;658355;-66
2022/07/17 02:44:25;;;;;;;27.43;11.27;;;8.30;99.90;;;;;;4375823;28;657800;-66
2022/07/17 02:47:14;;;;;;;50.20;11.60;;;8.30;99.90;;;;;;4401658;28;657568;-65
2022/07/17 02:50:01;;;;;;;105.30;12.07;;;8.30;99.90;;;;;;4378555;28;657908;-65
2022/07/17 02:52:49;;;;;;;106.60;12.80;;;8.40;99.90;;;;;;4396929;28;659728;-66
2022/07/17 02:55:36;;;;;;;165.33;14.00;;;8.40;99.90;;;;;;4380083;28;658490;-65
2022/07/17 02:58:23;;;;;;;105.00;12.83;;;8.40;99.90;;;;;;4401409;28;658823;-65
2022/07/17 03:01:10;;;;;;;57.23;11.73;;;8.30;99.90;;;;;;4376818;28;658498;-65
2022/07/17 03:03:59;;;;;;;107.17;11.67;;;8.20;99.90;;;;;;4393542;28;658444;-65
2022/07/17 03:06:46;;;;;;;37.23;11.60;;;8.30;99.90;;;;;;4374139;28;658503;-65
2022/07/17 03:09:33;;;;;;;44.90;11.27;;;8.30;99.90;;;;;;4394123;28;658546;-65
2022/07/17 03:12:20;;;;;;;17.83;11.00;;;8.20;99.90;;;;;;4376669;28;657986;-65
2022/07/17 03:15:08;;;;;;;19.17;11.00;;;8.00;99.90;;;;;;4403636;28;658815;-65
2022/07/17 03:17:55;;;;;;;21.67;10.60;;;8.10;99.90;;;;;;4379679;28;657602;-65
2022/07/17 03:20:44;;;;;;;18.63;10.38;;;8.10;99.90;;;;;;4395438;28;657652;-65
2022/07/17 03:23:31;;;;;;;16.13;10.10;;;8.00;99.90;;;;;;4377079;28;657611;-65
2022/07/17 03:26:18;;;;;;;15.70;9.70;;;8.00;99.90;;;;;;4397325;28;658845;-65
2022/07/17 03:29:05;;;;;;;16.02;9.63;;;8.00;99.90;;;;;;4384327;28;656599;-66
2022/07/17 03:31:52;;;;;;;12.93;8.93;;;8.10;99.90;;;;;;4399897;28;656833;-65
2022/07/17 03:34:39;;;;;;;15.37;9.63;;;8.10;99.90;;;;;;4395053;28;656870;-65
2022/07/17 03:37:28;;;;;;;15.83;9.30;;;8.10;99.90;;;;;;4383615;28;656696;-65
2022/07/17 03:40:15;;;;;;;18.30;9.97;;;8.20;99.90;;;;;;4388372;28;657031;-66
2022/07/17 03:43:02;;;;;;;15.90;9.80;;;8.20;99.90;;;;;;4399187;28;656017;-65
2022/07/17 03:45:49;;;;;;;15.53;9.33;;;8.20;99.90;;;;;;4395800;28;657313;-65
2022/07/17 03:48:37;;;;;;;18.77;9.27;;;8.20;99.90;;;;;;4377317;28;656840;-65
2022/07/17 03:51:24;;;;;;;14.37;9.63;;;8.20;99.90;;;;;;4420411;28;656595;-66
2022/07/17 03:54:12;;;;;;;17.63;10.27;;;8.20;99.90;;;;;;4398725;28;656815;-65
2022/07/17 03:56:59;;;;;;;16.93;10.03;;;8.20;99.90;;;;;;4416604;28;658574;-65
2022/07/17 03:59:46;;;;;;;17.60;9.63;;;8.20;99.90;;;;;;4392643;28;658207;-65
2022/07/17 04:02:34;;;;;;;18.97;9.83;;;8.30;99.90;;;;;;4416644;28;656448;-65
2022/07/17 04:05:21;;;;;;;17.00;10.07;;;8.30;99.90;;;;;;4393747;28;658702;-65
2022/07/17 04:08:08;;;;;;;18.37;10.63;;;8.40;99.90;;;;;;4414383;28;658307;-65
2022/07/17 04:10:57;;;;;;;23.07;10.23;;;8.60;99.90;;;;;;4392918;28;658109;-66
2022/07/17 04:13:44;;;;;;;22.60;10.55;;;8.80;99.90;;;;;;4408719;28;657848;-65
2022/07/17 04:16:31;;;;;;;22.67;10.73;;;9.00;99.90;;;;;;4394481;28;659020;-65
2022/07/17 04:19:18;;;;;;;23.93;12.57;;;9.10;99.90;;;;;;4408228;28;658533;-65
2022/07/17 04:22:05;;;;;;;61.10;12.50;;;9.20;99.90;;;;;;4375525;28;657585;-66
2022/07/17 04:24:52;;;;;;;41.05;13.50;;;9.40;99.90;;;;;;4413663;28;658311;-66
2022/07/17 04:27:41;;;;;;;58.97;13.93;;;9.50;99.90;;;;;;4411076;28;658011;-65
2022/07/17 04:30:28;;;;;;;34.63;14.23;;;9.60;99.90;;;;;;4393976;28;658598;-66
2022/07/17 04:33:16;;;;;;;59.05;14.50;;;9.80;99.90;;;;;;4403924;28;657977;-66
2022/07/17 04:36:03;;;;;;;47.77;13.90;;;10.00;99.90;;;;;;4418686;28;658559;-66
2022/07/17 04:38:50;;;;;;;27.60;12.60;;;10.30;99.90;;;;;;4397674;28;658537;-65
2022/07/17 04:41:37;;;;;;;25.40;12.70;;;10.50;99.90;;;;;;4420882;28;659589;-65
2022/07/17 04:44:26;;;;;;;29.33;12.33;;;10.60;99.90;;;;;;4419589;28;658114;-65
2022/07/17 04:47:13;;;;;;;22.50;12.73;;;10.70;99.90;;;;;;4392191;28;658913;-66
2022/07/17 04:50:00;;;;;;;21.73;11.73;;;10.80;99.90;;;;;;4393640;28;658645;-66
2022/07/17 04:52:47;;;;;;;19.50;11.80;;;10.80;99.90;;;;;;4418405;28;658475;-65
2022/07/17 04:55:34;;;;;;;20.37;12.00;;;10.90;99.90;;;;;;4411623;28;659489;-65
2022/07/17 04:58:21;;;;;;;24.63;12.57;;;10.90;99.90;;;;;;4395325;28;659310;-65
2022/07/17 05:01:10;;;;;;;21.03;12.40;;;11.10;99.90;;;;;;4414240;28;659115;-66
2022/07/17 05:03:57;;;;;;;21.67;13.53;;;11.20;99.90;;;;;;4396093;28;659994;-65
2022/07/17 05:06:44;;;;;;;25.10;13.67;;;11.30;99.90;;;;;;4413709;28;658539;-65
2022/07/17 05:09:31;;;;;;;19.75;11.23;;;11.40;99.90;;;;;;4401996;28;659111;-65
2022/07/17 05:12:18;;;;;;;19.03;11.63;;;11.50;99.90;;;;;;4410782;28;660875;-65
2022/07/17 05:15:06;;;;;;;21.67;11.87;;;11.60;99.90;;;;;;4394816;28;658567;-66
2022/07/17 05:17:55;;;;;;;23.20;11.03;;;11.70;99.90;;;;;;4411282;28;659344;-65
2022/07/17 05:20:42;;;;;;;25.10;11.23;;;11.70;99.90;;;;;;4397002;28;659006;-65
2022/07/17 05:23:29;;;;;;;24.03;11.87;;;11.70;99.90;;;;;;4415766;28;658670;-65
2022/07/17 05:26:16;;;;;;;21.15;11.73;;;11.70;99.90;;;;;;4390179;28;658616;-66
2022/07/17 05:29:03;;;;;;;22.47;12.77;;;11.70;99.90;;;;;;4410643;28;660011;-65
2022/07/17 05:31:50;;;;;;;27.03;12.37;;;11.80;99.90;;;;;;4390749;28;659247;-65
2022/07/17 05:34:39;;;;;;;21.70;11.13;;;11.90;99.90;;;;;;4412492;28;660267;-66
2022/07/17 05:37:26;;;;;;;17.63;10.33;;;12.00;99.90;;;;;;4396111;28;658221;-66
2022/07/17 05:40:13;;;;;;;19.93;10.57;;;12.20;99.90;;;;;;4416170;28;659725;-65
2022/07/17 05:43:00;;;;;;;19.03;9.20;;;12.10;99.90;;;;;;4392361;28;658793;-66
2022/07/17 05:45:47;;;;;;;14.43;9.30;;;12.20;99.90;;;;;;4423758;28;657956;-65
2022/07/17 05:48:34;;;;;;;17.47;9.43;;;12.40;99.90;;;;;;4423032;28;657054;-65
2022/07/17 05:51:23;;;;;;;15.40;8.57;;;12.50;99.90;;;;;;4398114;28;659258;-65
2022/07/17 05:54:10;;;;;;;14.37;7.13;;;12.60;99.90;;;;;;4396758;28;658006;-66
2022/07/17 05:56:57;;;;;;;12.97;7.53;;;12.70;99.90;;;;;;4422850;28;657843;-65
2022/07/17 05:59:44;;;;;;;13.33;6.67;;;12.70;99.90;;;;;;4415113;28;657287;-65
2022/07/17 06:02:31;;;;;;;12.37;7.07;;;12.90;99.90;;;;;;4397864;28;657755;-65
2022/07/17 06:05:19;;;;;;;11.37;6.83;;;13.00;99.90;;;;;;4418360;28;658232;-65
2022/07/17 06:08:07;;;;;;;14.93;8.27;;;13.20;99.90;;;;;;4398860;28;657330;-65
2022/07/17 06:10:54;;;;;;;14.40;7.33;;;13.30;99.90;;;;;;4413884;28;657462;-65
2022/07/17 06:13:41;;;;;;;13.93;7.23;;;13.20;99.90;;;;;;4398900;28;657767;-65
2022/07/17 06:16:28;;;;;;;13.80;7.50;;;13.40;99.90;;;;;;4418399;28;658656;-65
2022/07/17 06:19:15;;;;;;;18.27;6.90;;;13.70;99.90;;;;;;4396520;28;657690;-65
2022/07/17 06:22:02;;;;;;;10.87;5.40;;;13.80;99.90;;;;;;4417324;28;659193;-66
2022/07/17 06:24:51;;;;;;;13.03;6.57;;;13.80;99.90;;;;;;4411516;28;657374;-66
2022/07/17 06:27:40;;;;;;;13.23;5.73;;;13.90;99.90;;;;;;4417220;28;657749;-65
2022/07/17 06:30:27;;;;;;;7.67;4.00;;;14.20;99.90;;;;;;4398844;28;659006;-65
2022/07/17 06:33:14;;;;;;;18.40;4.90;;;14.40;99.90;;;;;;4421186;28;656034;-65
2022/07/17 06:36:01;;;;;;;13.80;4.28;;;14.60;99.90;;;;;;4394565;28;657672;-66
2022/07/17 06:38:48;;;;;;;10.53;2.87;;;14.80;99.90;;;;;;4415093;28;658734;-65
2022/07/17 06:41:37;;;;;;;7.67;2.60;;;14.90;99.90;;;;;;4399478;28;657830;-65
2022/07/17 06:44:24;;;;;;;5.67;2.60;;;14.90;99.90;;;;;;4413844;28;656564;-65
2022/07/17 06:47:11;;;;;;;9.43;2.87;;;14.60;99.90;;;;;;4398681;28;657037;-65
2022/07/17 06:49:58;;;;;;;6.07;2.40;;;14.60;99.90;;;;;;4397373;28;656877;-64
2022/07/17 06:52:45;;;;;;;10.20;3.17;;;14.70;99.90;;;;;;4404814;28;656789;-65
2022/07/17 06:55:32;;;;;;;9.60;2.57;;;15.20;99.90;;;;;;4431378;28;657136;-65
2022/07/17 06:58:21;;;;;;;12.73;3.00;;;15.30;99.90;;;;;;4423171;28;657521;-66
2022/07/17 07:01:08;;;;;;;11.23;2.47;;;15.00;99.90;;;;;;4405874;28;658589;-65
2022/07/17 07:03:55;;;;;;;8.53;2.37;;;15.00;99.90;;;;;;4400346;28;657790;-67
2022/07/17 07:06:42;;;;;;;5.43;2.80;;;15.40;99.90;;;;;;4433348;28;656535;-65
2022/07/17 07:09:30;;;;;;;6.37;2.60;;;15.70;99.90;;;;;;4422963;28;656666;-66
2022/07/17 07:12:17;;;;;;;9.87;2.30;;;15.70;99.90;;;;;;4429802;28;658206;-66
2022/07/17 07:15:08;;;;;;;3.93;1.73;;;15.90;99.90;;;;;;4424467;28;656859;-67
2022/07/17 07:17:55;;;;;;;7.20;2.33;;;16.00;99.90;;;;;;4412947;28;656680;-65
2022/07/17 07:20:42;;;;;;;3.20;1.70;;;16.20;99.90;;;;;;4433818;28;656593;-65
2022/07/17 07:23:29;;;;;;;6.83;1.80;;;16.30;99.90;;;;;;4429133;28;656538;-65
2022/07/17 07:26:16;;;;;;;7.33;1.70;;;16.20;99.90;;;;;;4402587;28;656875;-66
2022/07/17 07:29:03;;;;;;;7.70;1.80;;;16.30;99.90;;;;;;4419908;28;657072;-65
2022/07/17 07:31:52;;;;;;;7.77;1.80;;;16.50;99.90;;;;;;4396423;28;656531;-65
2022/07/17 07:34:39;;;;;;;6.00;1.70;;;16.70;99.90;;;;;;4427225;28;656350;-65
2022/07/17 07:37:26;;;;;;;7.72;1.45;;;16.60;99.90;;;;;;4400134;28;657482;-65
2022/07/17 07:40:13;;;;;;;6.53;1.53;;;16.20;99.90;;;;;;4417926;28;657217;-65
2022/07/17 07:43:01;;;;;;;4.73;1.50;;;16.50;99.90;;;;;;4409924;28;656681;-66
2022/07/17 07:45:48;;;;;;;2.27;0.80;;;16.90;99.90;;;;;;4433463;28;657615;-65
2022/07/17 07:48:36;;;;;;;3.50;1.08;;;17.00;99.90;;;;;;4411856;28;657553;-66
2022/07/17 07:51:24;;;;;;;4.53;1.20;;;16.80;99.90;;;;;;4424948;28;657672;-66
2022/07/17 07:54:11;;;;;;;4.13;1.00;;;16.70;99.90;;;;;;4401206;28;656572;-66
2022/07/17 07:56:58;;;;;;;4.90;1.00;;;17.10;99.90;;;;;;4416402;28;657433;-66
2022/07/17 07:59:45;;;;;;;3.27;0.60;;;17.90;99.90;;;;;;4398971;28;656899;-65
2022/07/17 08:02:32;;;;;;;3.40;0.93;;;17.90;99.90;;;;;;4416176;28;656732;-66
2022/07/17 08:05:21;;;;;;;3.00;0.90;;;17.50;99.90;;;;;;4430904;28;656699;-65
2022/07/17 08:08:08;;;;;;;3.57;1.00;;;17.10;99.90;;;;;;4405743;28;656966;-66
2022/07/17 08:10:55;;;;;;;6.27;0.80;;;18.00;99.90;;;;;;4413723;28;656419;-66
2022/07/17 08:13:42;;;;;;;1.57;0.60;;;18.90;99.90;;;;;;4429119;28;656816;-65
2022/07/17 08:16:29;;;;;;;10.20;0.93;;;18.60;99.90;;;;;;4427534;28;656676;-65
2022/07/17 08:19:17;;;;;;;4.93;1.23;;;17.70;99.90;;;;;;4394239;28;657274;-65
2022/07/17 08:22:06;;;;;;;4.53;0.70;;;17.90;99.90;;;;;;4427175;28;656574;-66
2022/07/17 08:24:53;;;;;;;6.83;0.90;;;18.00;99.90;;;;;;4400525;28;657283;-65
2022/07/17 08:27:41;;;;;;;3.13;0.90;;;18.10;99.90;;;;;;4418163;28;656622;-66
2022/07/17 08:30:29;;;;;;;2.60;0.60;;;17.70;99.90;;;;;;4399029;28;657082;-65
2022/07/17 08:33:17;;;;;;;4.87;0.90;;;17.60;99.90;;;;;;4379916;28;656697;-65
2022/07/17 08:36:06;;;;;;;3.23;0.80;;;17.30;99.90;;;;;;4423678;28;656092;-66
2022/07/17 08:38:55;;;;;;;4.15;0.82;;;17.20;99.90;;;;;;4419388;28;657479;-66
2022/07/17 08:41:42;;;;;;;3.03;0.87;;;17.50;99.90;;;;;;4409020;28;657926;-66
2022/07/17 08:44:29;;;;;;;2.70;0.80;;;18.70;99.90;;;;;;4427868;28;656851;-66
2022/07/17 08:47:17;;;;;;;2.47;0.80;;;18.40;99.90;;;;;;4404016;28;657570;-67
2022/07/17 08:50:05;;;;;;;2.70;0.70;;;18.50;99.90;;;;;;4417303;28;657022;-66
2022/07/17 08:52:52;;;;;;;3.67;0.70;;;19.40;96.50;;;;;;4402082;28;657035;-67
2022/07/17 08:55:40;;;;;;;5.40;1.07;;;20.20;91.50;;;;;;4415607;28;657367;-67
2022/07/17 08:58:27;;;;;;;2.37;0.80;;;20.60;90.70;;;;;;4393480;28;657489;-65
2022/07/17 09:01:15;;;;;;;3.70;0.87;;;19.70;90.10;;;;;;4414232;28;656776;-66
2022/07/17 09:04:06;;;;;;;5.87;0.70;;;18.10;92.30;;;;;;4411122;28;657094;-65
2022/07/17 09:07:00;;;;;;;3.90;1.07;;;18.00;94.70;;;;;;4407738;28;657597;-66
2022/07/17 09:09:50;;;;;;;1.67;0.70;;;18.00;96.50;;;;;;4371837;28;656949;-66
2022/07/17 09:12:39;;;;;;;3.53;0.80;;;18.60;91.90;;;;;;4395598;28;657319;-65
2022/07/17 09:15:27;;;;;;;2.70;0.80;;;19.50;91.30;;;;;;4392805;28;656609;-66
2022/07/17 09:18:14;;;;;;;3.83;0.60;;;19.30;90.10;;;;;;4415232;28;657533;-65
2022/07/17 09:21:01;;;;;;;5.20;0.90;;;18.70;89.60;;;;;;4394742;28;656744;-65
2022/07/17 09:23:58;;;;;;;2.03;0.73;;;18.40;92.40;;;;;;4419485;28;657591;-65
2022/07/17 09:26:46;;;;;;;0.93;0.60;;;17.70;92.10;;;;;;4377544;28;656942;-66
2022/07/17 09:29:35;;;;;;;1.47;0.70;;;18.50;93.60;;;;;;4412626;28;657066;-66
2022/07/17 09:32:23;;;;;;;1.90;0.70;;;19.40;91.50;;;;;;4392966;28;657325;-66
2022/07/17 09:35:11;;;;;;;3.23;0.60;;;19.10;87.30;;;;;;4417222;28;656614;-66
2022/07/17 09:37:58;;;;;;;0.87;0.50;;;20.20;87.10;;;;;;4426573;28;657615;-66
2022/07/17 09:43:52;;;;;;;2.87;0.47;;;19.40;87.00;;;;;;4379816;28;656778;-67
2022/07/17 09:46:42;;;;;;;2.63;0.80;;;19.70;82.10;;;;;;4413054;28;656164;-65
2022/07/17 09:49:29;;;;;;;2.80;0.70;;;19.80;82.00;;;;;;4386817;28;656970;-66
2022/07/17 09:52:16;;;;;;;4.73;0.70;;;19.40;77.50;;;;;;4399246;28;657026;-66
2022/07/17 09:55:04;;;;;;;5.20;0.80;;;19.00;83.00;;;;;;4414654;28;657275;-66
2022/07/17 09:57:51;;;;;;;3.30;0.90;;;18.70;85.40;;;;;;4399950;28;657955;-65
2022/07/17 10:00:38;;;;;;;2.73;0.70;;;18.80;83.50;;;;;;4410930;28;658462;-65
2022/07/17 10:03:26;;;;;;;4.80;1.03;;;19.10;82.50;;;;;;4388425;28;656504;-66
2022/07/17 10:06:13;;;;;;;2.53;0.70;;;18.80;80.10;;;;;;4413762;28;657191;-64
2022/07/17 10:09:02;;;;;;;3.53;0.80;;;18.60;82.10;;;;;;4398327;28;656879;-65
2022/07/17 10:11:49;;;;;;;3.50;0.80;;;18.40;84.20;;;;;;4416236;28;656297;-66
2022/07/17 10:14:38;;;;;;;2.93;0.80;;;19.00;83.50;;;;;;4395015;28;656599;-66
2022/07/17 10:17:25;;;;;;;1.13;0.60;;;19.60;81.10;;;;;;4391880;28;656996;-66
2022/07/17 10:20:24;;;;;;;1.73;0.70;;;19.40;73.60;;;;;;4410764;28;657190;-66
2022/07/17 10:23:14;;;;;;;2.47;0.80;;;19.60;77.90;;;;;;4367869;28;657239;-66
2022/07/17 10:26:01;;;;;;;1.70;0.80;;;19.30;76.00;;;;;;4396653;28;656436;-65
2022/07/17 10:28:48;;;;;;;2.47;0.70;;;18.90;77.40;;;;;;4418455;28;657646;-66
2022/07/17 10:31:36;;;;;;;1.17;0.73;;;19.50;78.90;;;;;;4397503;28;657006;-65
2022/07/17 10:34:36;;;;;;;2.63;0.70;;;20.20;74.30;;;;;;4434953;28;657222;-65
2022/07/17 10:37:26;;;;;;;2.63;0.70;;;20.20;73.70;;;;;;4398447;28;656925;-65
2022/07/17 10:40:17;;;;;;;1.53;0.63;;;20.70;72.70;;;;;;4393791;28;657184;-65
2022/07/17 10:43:05;;;;;;;2.83;0.70;;;20.90;68.80;;;;;;4403730;28;656610;-65
2022/07/17 10:45:52;;;;;;;2.40;0.80;;;20.60;69.60;;;;;;4400555;28;658094;-66
2022/07/17 10:48:39;;;;;;;1.37;0.60;;;21.40;69.50;;;;;;4429232;28;656709;-65
2022/07/17 10:51:27;;;;;;;1.87;0.80;;;21.50;61.10;;;;;;4400796;28;656236;-65
2022/07/17 10:54:16;;;;;;;3.63;1.03;;;21.60;66.80;;;;;;4414705;28;656819;-65
2022/07/17 10:57:03;;;;;;;1.77;0.50;;;20.80;65.10;;;;;;4394926;28;657231;-65
2022/07/17 10:59:50;;;;;;;5.00;0.80;;;20.70;67.30;;;;;;4399579;28;656520;-66
2022/07/17 11:02:37;;;;;;;2.57;0.60;;;21.70;72.90;;;;;;4423106;28;656285;-65
2022/07/17 11:05:24;;;;;;;4.07;0.80;;;21.80;67.30;;;;;;4416432;28;656535;-65
2022/07/17 11:08:13;;;;;;;3.10;0.90;;;21.00;63.60;;;;;;4400612;28;656760;-64
2022/07/17 11:11:01;;;;;;;3.20;0.77;;;21.00;66.90;;;;;;4397128;28;656672;-65
2022/07/17 11:13:49;;;;;;;0.90;0.70;;;21.00;62.80;;;;;;4417568;28;657164;-64
2022/07/17 11:16:36;;;;;;;3.83;0.90;;;19.90;66.10;;;;;;4398394;28;656508;-65
2022/07/17 11:19:23;;;;;;;3.00;0.87;;;20.30;66.20;;;;;;4426593;28;657365;-64
2022/07/17 11:22:12;;;;;;;0.90;0.67;;;21.00;63.80;;;;;;4393739;28;657043;-65
2022/07/17 11:24:59;;;;;;;3.93;0.67;;;21.30;61.00;;;;;;4415559;28;656416;-64
2022/07/17 11:27:49;;;;;;;2.70;0.80;;;20.80;61.20;;;;;;4396657;28;656970;-64
2022/07/17 11:30:36;;;;;;;1.33;0.60;;;20.50;61.20;;;;;;4393245;28;656590;-64
2022/07/17 11:33:24;;;;;;;2.37;1.10;;;19.60;62.10;;;;;;4416231;28;658837;-64
2022/07/17 11:36:11;;;;;;;2.80;0.73;;;20.10;65.50;;;;;;4391017;28;656576;-65
2022/07/17 11:38:59;;;;;;;2.07;0.90;;;21.00;65.80;;;;;;4420222;28;657975;-64
2022/07/17 11:41:49;;;;;;;3.57;0.80;;;21.00;61.10;;;;;;4392055;28;656863;-64
2022/07/17 11:44:37;;;;;;;1.90;0.60;;;21.20;59.70;;;;;;4406042;28;656683;-65
2022/07/17 11:47:26;;;;;;;2.73;0.70;;;20.70;60.40;;;;;;4420305;28;657176;-64
2022/07/17 11:50:14;;;;;;;4.63;0.70;;;21.80;62.10;;;;;;4402652;28;656866;-65
2022/07/17 11:53:01;;;;;;;3.17;0.70;;;22.20;57.90;;;;;;4404741;28;656771;-64
2022/07/17 11:55:49;;;;;;;2.43;0.73;;;21.70;57.60;;;;;;4429221;28;657568;-64
2022/07/17 11:58:43;;;;;;;6.47;0.70;;;21.20;60.40;;;;;;4410335;28;656881;-64
2022/07/17 12:01:39;;;;;;;3.23;0.97;;;21.10;60.80;;;;;;4410658;28;656879;-66
2022/07/17 12:04:26;;;;;;;5.87;0.90;;;21.20;63.20;;;;;;4409606;28;656530;-65
2022/07/17 12:07:13;;;;;;;6.50;1.07;;;21.30;60.70;;;;;;4429196;28;656554;-67
2022/07/17 12:10:00;;;;;;;2.23;1.20;;;21.50;64.90;;;;;;4397330;28;656790;-65
2022/07/17 12:12:56;;;;;;;3.10;1.10;;;21.50;65.60;;;;;;4431214;28;657496;-65
2022/07/17 12:15:44;;;;;;;4.27;0.90;;;22.70;62.30;;;;;;4406532;28;656948;-65
2022/07/17 12:18:32;;;;;;;5.30;0.80;;;23.00;61.60;;;;;;4410890;28;656702;-64
2022/07/17 12:21:19;;;;;;;5.13;1.20;;;22.30;57.80;;;;;;4429583;28;656697;-65
2022/07/17 12:24:07;;;;;;;2.00;0.70;;;22.10;58.80;;;;;;4406048;28;657272;-64
2022/07/17 12:26:55;;;;;;;2.97;0.60;;;22.30;59.20;;;;;;4421557;28;656428;-64
2022/07/17 12:29:43;;;;;;;3.73;0.77;;;22.00;57.30;;;;;;4418083;28;657777;-64
2022/07/17 12:32:30;;;;;;;4.13;0.60;;;22.00;59.50;;;;;;4422197;28;656237;-65
2022/07/17 12:35:19;;;;;;;2.87;1.10;;;21.90;59.90;;;;;;4432646;28;656084;-63
2022/07/17 12:38:06;;;;;;;5.13;0.97;;;21.70;59.90;;;;;;4405188;28;656611;-64
2022/07/17 12:40:53;;;;;;;5.67;0.90;;;21.90;59.90;;;;;;4426153;28;657565;-64
2022/07/17 12:43:40;;;;;;;5.93;1.10;;;22.00;57.90;;;;;;4402100;28;656984;-65
2022/07/17 12:46:27;;;;;;;2.33;0.80;;;22.20;59.00;;;;;;4428051;28;657094;-65
2022/07/17 12:49:15;;;;;;;2.77;0.90;;;21.90;58.90;;;;;;4427282;28;656356;-65
2022/07/17 12:52:04;;;;;;;2.43;0.87;;;21.60;56.40;;;;;;4428398;28;657354;-64
2022/07/17 12:54:52;;;;;;;2.30;0.97;;;21.20;58.60;;;;;;4405271;28;656501;-64
2022/07/17 12:57:39;;;;;;;6.00;1.13;;;21.20;61.00;;;;;;4422039;28;656870;-64
2022/07/17 13:00:26;;;;;;;4.93;1.10;;;21.60;60.60;;;;;;4409694;28;656587;-63
2022/07/17 13:03:13;;;;;;;2.00;0.80;;;21.60;57.00;;;;;;4428345;28;658173;-65
2022/07/17 13:06:01;;;;;;;3.53;1.10;;;21.40;59.40;;;;;;4400133;28;656683;-65
2022/07/17 13:08:50;;;;;;;4.67;1.03;;;22.70;62.00;;;;;;4415493;28;657156;-64
2022/07/17 13:11:37;;;;;;;5.07;0.90;;;23.40;59.40;;;;;;4409518;28;656768;-64
2022/07/17 13:14:24;;;;;;;4.27;1.20;;;23.80;55.10;;;;;;4407464;28;655859;-64
2022/07/17 13:17:11;;;;;;;4.33;1.10;;;23.80;59.10;;;;;;4373683;28;657277;-64
2022/07/17 13:19:58;;;;;;;2.40;0.87;;;22.70;55.10;;;;;;4420885;28;658166;-64
2022/07/17 13:22:45;;;;;;;3.23;0.90;;;23.50;55.00;;;;;;4410311;28;656597;-66
2022/07/17 13:25:33;;;;;;;3.43;0.80;;;23.20;55.60;;;;;;4431941;28;656268;-64
2022/07/17 13:28:21;;;;;;;3.37;0.80;;;22.70;56.10;;;;;;4406775;28;656412;-65
2022/07/17 13:31:08;;;;;;;3.87;0.87;;;22.90;55.70;;;;;;4432392;28;657031;-63
2022/07/17 13:33:55;;;;;;;2.20;0.87;;;22.40;55.40;;;;;;4401386;28;656380;-64
2022/07/17 13:36:42;;;;;;;2.40;0.80;;;22.00;56.10;;;;;;4414670;28;657310;-64
2022/07/17 13:39:29;;;;;;;3.73;1.03;;;22.30;57.60;;;;;;4422821;28;656666;-64
2022/07/17 13:42:18;;;;;;;6.40;1.37;;;22.90;57.10;;;;;;4409381;28;656631;-64
2022/07/17 13:45:06;;;;;;;2.93;1.00;;;23.20;56.00;;;;;;4408858;28;656285;-65
2022/07/17 13:47:54;;;;;;;3.57;1.10;;;23.20;54.10;;;;;;4427759;28;656734;-64
2022/07/17 13:50:41;;;;;;;2.73;0.90;;;22.80;56.30;;;;;;4402295;28;656571;-64
2022/07/17 13:53:29;;;;;;;5.27;1.20;;;23.40;58.40;;;;;;4424300;28;657181;-64
2022/07/17 13:56:16;;;;;;;1.50;0.70;;;23.70;55.80;;;;;;4402750;28;656429;-64
2022/07/17 13:59:05;;;;;;;4.20;1.10;;;22.40;54.70;;;;;;4421427;28;657185;-64
2022/07/17 14:01:52;;;;;;;3.03;0.90;;;22.30;55.70;;;;;;4404738;28;657425;-64
2022/07/17 14:04:40;;;;;;;5.43;0.83;;;22.90;54.20;;;;;;4420164;28;656323;-64
2022/07/17 14:07:27;;;;;;;10.47;1.10;;;23.10;53.90;;;;;;4420083;28;657935;-63
2022/07/17 14:10:15;;;;;;;4.70;1.00;;;22.80;54.60;;;;;;4428426;28;657592;-65
2022/07/17 14:13:02;;;;;;;3.50;1.20;;;22.80;55.50;;;;;;4435406;28;656200;-63
2022/07/17 14:15:51;;;;;;;4.17;0.90;;;22.60;55.30;;;;;;4418932;28;657912;-64
2022/07/17 14:18:57;;;;;;;3.77;1.03;;;23.20;55.90;;;;;;4408112;28;657314;-64